Time;durP1;ratioP1;P1;durP2;ratioP2;P2;SDS_P1;SDS_P2;PMS_P1;PMS_P2;Temp;Humidity;BMP_temperature;BMP_pressure;BME280_temperature;BME280_humidity;BME280_pressure;Samples;Min_cycle;Max_cycle;Signal;HPM_P1;HPM_P2
2023/12/01 00:00:16;;;;;;;141.32;73.22;;;;;;;-2.97;87.05;99006.66;1755815;81;28105;-48
2023/12/01 00:02:45;;;;;;;139.70;71.57;;;;;;;-3.04;87.31;99003.69;1755735;81;25583;-45
2023/12/01 00:05:14;;;;;;;144.37;74.92;;;;;;;-3.08;87.52;98999.14;1710994;83;25664;-45
2023/12/01 00:07:42;;;;;;;143.07;72.75;;;;;;;-3.11;87.85;99006.28;1710853;83;26538;-45
2023/12/01 00:10:12;;;;;;;144.35;70.78;;;;;;;-3.14;88.19;99001.48;1710884;83;25472;-44
2023/12/01 00:12:39;;;;;;;141.95;70.97;;;;;;;-3.15;88.32;98993.27;1710977;83;28179;-45
2023/12/01 00:15:08;;;;;;;135.52;69.27;;;;;;;-3.19;88.34;98996.94;1710770;83;25481;-45
2023/12/01 00:17:35;;;;;;;132.27;67.53;;;;;;;-3.20;88.30;99007.26;1710968;83;25499;-48
2023/12/01 00:20:04;;;;;;;132.43;72.12;;;;;;;-3.20;88.33;99011.22;1685475;83;26218;-45
2023/12/01 00:22:31;;;;;;;134.90;66.50;;;;;;;-3.20;88.36;99013.34;1711126;83;25652;-45
2023/12/01 00:24:58;;;;;;;131.45;67.85;;;;;;;-3.18;88.43;99011.77;1710818;83;27394;-45
2023/12/01 00:27:26;;;;;;;131.22;67.95;;;;;;;-3.18;88.66;99014.41;1710754;83;25812;-43
2023/12/01 00:29:54;;;;;;;138.57;67.72;;;;;;;-3.17;88.68;99012.02;1710857;83;25653;-45
2023/12/01 00:32:22;;;;;;;132.63;66.65;;;;;;;-3.16;88.99;99008.88;1714608;83;26239;-45
2023/12/01 00:34:49;;;;;;;133.35;65.20;;;;;;;-3.14;89.11;99008.89;1717753;83;25448;-44
2023/12/01 00:37:17;;;;;;;138.12;66.95;;;;;;;-3.11;89.12;99004.95;1757184;81;27902;-46
2023/12/01 00:39:44;;;;;;;146.13;69.10;;;;;;;-3.09;89.07;99010.26;1760775;81;26008;-47
2023/12/01 00:42:12;;;;;;;140.03;70.12;;;;;;;-3.07;89.14;99018.73;1760875;81;25363;-45
2023/12/01 00:44:40;;;;;;;139.15;68.37;;;;;;;-3.06;89.08;99019.55;1760833;81;25966;-46
2023/12/01 00:47:08;;;;;;;133.75;68.80;;;;;;;-3.04;88.97;99022.74;1760892;81;25467;-45
2023/12/01 00:49:35;;;;;;;108.50;53.23;;;;;;;-3.03;88.88;99028.29;1761066;81;28324;-45
2023/12/01 00:52:04;;;;;;;140.85;70.05;;;;;;;-3.03;88.87;99021.67;1760753;81;25734;-45
2023/12/01 00:54:32;;;;;;;139.75;69.62;;;;;;;-3.05;88.73;99023.27;1732981;81;25428;-45
2023/12/01 00:56:59;;;;;;;139.30;69.77;;;;;;;-3.07;88.56;99026.67;1760924;81;27105;-45
2023/12/01 00:59:27;;;;;;;141.15;67.40;;;;;;;-3.10;88.38;99027.20;1760905;81;25449;-47
2023/12/01 01:01:54;;;;;;;139.60;68.22;;;;;;;-3.13;88.39;99027.69;1760909;81;28329;-46
2023/12/01 01:04:21;;;;;;;138.62;67.15;;;;;;;-3.16;88.41;99028.18;1760714;81;25553;-45
2023/12/01 01:06:48;;;;;;;130.32;68.30;;;;;;;-3.19;88.40;99024.17;1760857;81;25576;-45
2023/12/01 01:09:15;;;;;;;135.32;70.75;;;;;;;-3.22;88.30;99029.98;1760905;81;26174;-46
2023/12/01 01:11:42;;;;;;;138.57;71.45;;;;;;;-3.23;88.14;99030.23;1760804;81;25640;-45
2023/12/01 01:14:09;;;;;;;140.32;69.40;;;;;;;-3.27;88.06;99022.50;1760792;81;27249;-46
2023/12/01 01:16:36;;;;;;;138.05;67.67;;;;;;;-3.28;87.98;99022.24;1760769;81;25533;-45
2023/12/01 01:19:02;;;;;;;142.57;69.90;;;;;;;-3.27;88.21;99016.70;1760813;81;25565;-45
2023/12/01 01:21:29;;;;;;;139.97;69.40;;;;;;;-3.27;88.03;99026.47;1760817;81;25504;-46
2023/12/01 01:23:55;;;;;;;135.70;68.25;;;;;;;-3.29;88.32;99018.78;1760845;81;25403;-45
2023/12/01 01:26:22;;;;;;;136.60;69.95;;;;;;;-3.30;88.40;99017.70;1760782;81;27302;-45
2023/12/01 01:28:50;;;;;;;138.45;69.75;;;;;;;-3.29;88.51;99014.02;1760669;81;25740;-46
2023/12/01 01:31:16;;;;;;;148.38;71.62;;;;;;;-3.29;88.65;99015.34;1760728;81;25559;-46
2023/12/01 01:33:43;;;;;;;140.10;70.22;;;;;;;-3.28;88.64;99016.42;1760737;81;25622;-45
2023/12/01 01:36:13;;;;;;;138.77;67.65;;;;;;;-3.27;88.61;99010.60;1760874;81;25392;-44
2023/12/01 01:38:40;;;;;;;;;;;;;;;-3.27;88.71;99014.06;1735576;81;28031;-46
2023/12/01 01:41:08;;;;;;;145.95;67.42;;;;;;;-3.27;88.80;99008.77;1760735;81;25609;-45
2023/12/01 01:43:36;;;;;;;139.88;67.00;;;;;;;-3.26;88.90;98999.77;1760801;81;25597;-46
2023/12/01 01:46:11;;;;;;;128.38;65.52;;;;;;;-3.25;89.06;98998.73;1761090;81;25648;-45
2023/12/01 01:48:41;;;;;;;126.22;62.62;;;;;;;-3.24;89.09;99002.97;1760857;81;25599;-45
2023/12/01 01:51:09;;;;;;;141.65;65.72;;;;;;;-3.24;88.91;98997.67;1760757;81;27412;-45
2023/12/01 01:53:43;;;;;;;131.82;66.95;;;;;;;-3.23;88.67;98997.17;1760669;81;25544;-43
2023/12/01 01:56:13;;;;;;;138.03;64.72;;;;;;;-3.25;88.74;99000.06;1760823;81;25558;-44
2023/12/01 01:58:42;;;;;;;123.30;62.78;;;;;;;-3.25;88.76;98997.42;1760929;81;25606;-44
2023/12/01 02:01:10;;;;;;;129.42;61.05;;;;;;;-3.25;88.80;99007.17;1760945;81;25399;-44
2023/12/01 02:03:37;;;;;;;129.05;64.45;;;;;;;-3.26;88.69;99006.39;1760767;81;28000;-44
2023/12/01 02:06:07;;;;;;;131.27;63.10;;;;;;;-3.28;88.68;99008.48;1760691;81;25669;-45
2023/12/01 02:08:35;;;;;;;126.85;62.17;;;;;;;-3.29;88.67;99005.55;1760779;81;25579;-46
2023/12/01 02:11:04;;;;;;;128.95;62.08;;;;;;;-3.32;88.52;99004.76;1760708;81;25663;-46
2023/12/01 02:13:32;;;;;;;132.12;65.65;;;;;;;-3.34;88.37;99005.50;1760909;81;25399;-47
2023/12/01 02:16:01;;;;;;;125.95;63.42;;;;;;;-3.39;88.03;99011.56;1760764;81;27326;-46
2023/12/01 02:18:31;;;;;;;125.05;60.23;;;;;;;-3.41;88.04;99009.66;1760900;81;25668;-45
2023/12/01 02:21:00;;;;;;;126.67;60.95;;;;;;;-3.44;88.08;99015.97;1760755;81;25549;-45
2023/12/01 02:23:28;;;;;;;129.95;62.85;;;;;;;-3.48;87.95;99017.53;1760877;81;32847;-45
2023/12/01 02:25:57;;;;;;;132.63;67.25;;;;;;;-3.52;87.85;99019.05;1760860;81;25636;-46
2023/12/01 02:28:24;;;;;;;143.13;66.53;;;;;;;-3.56;87.87;99020.07;1761038;81;27330;-48
2023/12/01 02:30:56;;;;;;;135.50;66.82;;;;;;;-3.63;87.63;99014.18;1760664;81;25601;-49
2023/12/01 02:33:24;;;;;;;128.18;63.15;;;;;;;-3.68;87.71;99016.23;1760160;81;25437;-46
2023/12/01 02:35:54;;;;;;;125.02;61.13;;;;;;;-3.72;87.79;99009.06;1759966;81;26578;-45
2023/12/01 02:38:22;;;;;;;;;;;;;;;-3.76;87.56;99020.66;1718639;83;25382;-46
2023/12/01 02:40:50;;;;;;;130.20;61.30;;;;;;;-3.82;87.39;99021.09;1685942;85;27320;-46
2023/12/01 02:43:20;;;;;;;134.93;65.28;;;;;;;-3.89;87.23;99013.88;1716121;83;25712;-45
2023/12/01 02:45:48;;;;;;;132.25;65.80;;;;;;;-3.96;87.07;99018.02;1719298;83;25389;-47
2023/12/01 02:48:17;;;;;;;127.10;64.95;;;;;;;-4.01;87.13;99025.08;1716146;83;25673;-45
2023/12/01 02:50:48;;;;;;;128.90;63.38;;;;;;;-4.06;86.93;99019.73;1719445;83;25433;-46
2023/12/01 02:53:16;;;;;;;125.82;61.83;;;;;;;-4.14;86.75;99019.61;1716139;83;27953;-46
2023/12/01 02:55:45;;;;;;;130.15;63.28;;;;;;;-4.23;86.56;99021.88;1719299;83;25567;-47
2023/12/01 02:58:13;;;;;;;126.55;63.52;;;;;;;-4.30;86.55;99022.57;1716272;83;25413;-48
2023/12/01 03:00:42;;;;;;;121.05;59.27;;;;;;;-4.37;86.52;99017.45;1719219;83;25614;-49
2023/12/01 03:03:09;;;;;;;123.55;59.83;;;;;;;-4.42;86.80;99017.37;1716315;83;25454;-48
2023/12/01 03:05:37;;;;;;;121.67;59.65;;;;;;;-4.45;86.97;99018.38;1719230;83;27306;-46
2023/12/01 03:08:05;;;;;;;123.20;56.60;;;;;;;-4.48;86.98;99017.55;1716030;83;25393;-46
2023/12/01 03:10:31;;;;;;;117.03;56.05;;;;;;;-4.53;86.95;99020.39;1719249;83;25493;-47
2023/12/01 03:12:58;;;;;;;118.20;58.30;;;;;;;-4.57;86.70;99025.86;1716069;83;25925;-45
2023/12/01 03:15:27;;;;;;;118.90;58.78;;;;;;;-4.61;86.38;99030.03;1719278;83;25461;-45
2023/12/01 03:17:53;;;;;;;118.33;60.10;;;;;;;-4.67;86.07;99029.66;1715833;81;27351;-48
2023/12/01 03:20:20;;;;;;;138.30;59.67;;;;;;;-4.71;86.35;99030.66;1719159;83;25609;-49
2023/12/01 03:22:51;;;;;;;126.25;59.15;;;;;;;-4.75;86.59;99030.88;1716120;83;25593;-50
2023/12/01 03:25:18;;;;;;;136.30;59.38;;;;;;;-4.80;86.67;99022.88;1719226;83;25715;-44
2023/12/01 03:27:47;;;;;;;148.95;65.42;;;;;;;-4.80;86.47;99028.64;1716170;83;25387;-48
2023/12/01 03:30:16;;;;;;;;;;;;;;;-4.82;86.76;99017.54;1721772;83;27293;-47
2023/12/01 03:32:49;;;;;;;128.60;58.80;;;;;;;-4.83;87.10;99015.95;1719298;82;25755;-47
2023/12/01 03:35:24;;;;;;;138.37;60.98;;;;;;;-4.86;87.38;99016.43;1716153;83;25549;-46
2023/12/01 03:37:55;;;;;;;137.43;61.48;;;;;;;-4.89;87.29;99026.42;1719286;83;25635;-45
2023/12/01 03:40:22;;;;;;;136.55;60.55;;;;;;;-4.93;87.39;99025.81;1716204;83;25437;-45
2023/12/01 03:42:51;;;;;;;131.32;60.58;;;;;;;-4.97;87.59;99028.62;1719212;83;28075;-44
2023/12/01 03:45:18;;;;;;;140.35;65.10;;;;;;;-4.99;87.38;99045.22;1716178;83;25470;-45
2023/12/01 03:47:51;;;;;;;125.35;59.48;;;;;;;-4.99;87.38;99045.22;1719304;83;25572;-44
2023/12/01 03:50:21;;;;;;;132.78;60.65;;;;;;;-4.99;87.72;99039.94;1716131;83;25833;-45
2023/12/01 03:52:51;;;;;;;128.50;59.15;;;;;;;-5.01;87.89;99036.22;1719184;83;25566;-45
2023/12/01 03:55:19;;;;;;;135.15;60.55;;;;;;;-5.01;88.02;99041.48;1716108;83;27309;-44
2023/12/01 03:57:46;;;;;;;140.55;63.50;;;;;;;-5.01;88.23;99045.98;1719109;83;25682;-43
2023/12/01 04:00:16;;;;;;;144.97;63.60;;;;;;;-4.99;88.05;99055.23;1716123;83;25571;-44
2023/12/01 04:02:45;;;;;;;132.65;62.35;;;;;;;-4.99;88.17;99051.28;1719209;83;26298;-44
2023/12/01 04:05:18;;;;;;;132.10;63.78;;;;;;;-5.00;88.44;99043.63;1691656;83;25670;-44
2023/12/01 04:07:46;;;;;;;131.67;59.15;;;;;;;-4.97;88.61;99045.77;1719240;83;27358;-44
2023/12/01 04:10:13;;;;;;;141.00;62.62;;;;;;;-4.94;88.90;99043.98;1716284;83;25655;-44
2023/12/01 04:12:45;;;;;;;134.47;61.50;;;;;;;-4.92;89.07;99042.72;1719175;83;25615;-43
2023/12/01 04:15:14;;;;;;;127.12;58.33;;;;;;;-4.88;89.17;99042.52;1716117;83;25637;-45
2023/12/01 04:17:43;;;;;;;142.77;65.17;;;;;;;-4.82;89.45;99038.64;1719350;83;25571;-46
2023/12/01 04:20:21;;;;;;;135.12;62.95;;;;;;;-4.78;89.43;99031.34;1716229;83;27362;-49
2023/12/01 04:22:52;;;;;;;143.45;61.70;;;;;;;-4.74;89.42;99027.70;1719108;83;26012;-45
2023/12/01 04:25:20;;;;;;;147.20;64.30;;;;;;;-4.70;89.72;99029.63;1715675;82;25611;-45
2023/12/01 04:27:47;;;;;;;150.10;65.42;;;;;;;-4.64;89.92;99025.75;1716853;82;25636;-44
2023/12/01 04:30:15;;;;;;;142.70;69.00;;;;;;;-4.61;90.09;99020.80;1716994;83;25402;-44
2023/12/01 04:32:48;;;;;;;150.68;67.20;;;;;;;-4.57;90.30;99020.58;1716710;83;27383;-44
2023/12/01 04:35:15;;;;;;;163.52;68.40;;;;;;;-4.52;90.46;99019.34;1759797;81;25773;-44
2023/12/01 04:37:42;;;;;;;165.18;68.45;;;;;;;-4.46;90.56;99011.00;1760027;81;25452;-45
2023/12/01 04:40:18;;;;;;;162.45;67.08;;;;;;;-4.41;90.72;99012.39;1759958;81;26554;-44
2023/12/01 04:42:48;;;;;;;161.07;69.37;;;;;;;-4.36;90.74;99007.69;1759212;81;25599;-44
2023/12/01 04:45:15;;;;;;;160.20;68.45;;;;;;;-4.31;90.83;99007.76;1759076;81;27347;-47
2023/12/01 04:47:44;;;;;;;155.55;71.28;;;;;;;-4.27;90.86;99011.53;1727279;81;25575;-45
2023/12/01 04:50:13;;;;;;;171.83;73.17;;;;;;;-4.23;90.95;99016.59;1760251;81;25533;-46
2023/12/01 04:52:48;;;;;;;;;;;;;;;-4.20;90.92;99021.39;1762556;81;25608;-47
2023/12/01 04:55:17;;;;;;;167.55;69.30;;;;;;;-4.16;91.03;99023.81;1760088;81;25594;-46
2023/12/01 04:57:45;;;;;;;;;;;;;;;-4.14;90.71;99024.39;1728693;83;28078;-44
2023/12/01 05:00:21;;;;;;;163.32;67.22;;;;;;;-4.13;90.31;99027.83;1695484;84;25596;-45
2023/12/01 05:02:59;;;;;;;147.05;66.22;;;;;;;-4.16;89.93;99030.95;1695598;84;25612;-44
2023/12/01 05:05:30;;;;;;;160.32;68.78;;;;;;;-4.18;89.69;99031.72;1726110;83;25615;-45
2023/12/01 05:07:59;;;;;;;160.28;68.90;;;;;;;-4.20;89.62;99040.41;1719214;83;25559;-45
2023/12/01 05:10:29;;;;;;;154.10;67.72;;;;;;;-4.22;89.56;99033.23;1760034;81;27880;-46
2023/12/01 05:12:59;;;;;;;169.80;69.55;;;;;;;-4.22;89.66;99040.65;1726039;83;25619;-45
2023/12/01 05:15:29;;;;;;;144.05;64.00;;;;;;;-4.26;89.76;99032.13;1719181;83;25572;-44
2023/12/01 05:18:10;;;;;;;;;;;;;;;-4.21;89.72;99040.91;1762558;81;25616;-45
2023/12/01 05:20:33;;;;;;;141.88;60.28;;;;;;;-4.20;89.85;99037.77;1758209;81;25395;-46
2023/12/01 05:23:09;;;;;;;140.55;62.33;;;;;;;-4.19;89.98;99031.42;1726104;83;27085;-44
2023/12/01 05:25:33;;;;;;;147.13;62.53;;;;;;;-4.20;89.97;99030.64;1689010;83;25455;-45
2023/12/01 05:28:03;;;;;;;155.22;64.25;;;;;;;-4.17;89.94;99031.98;1759980;81;25451;-45
2023/12/01 05:30:33;;;;;;;142.20;63.13;;;;;;;-4.15;89.91;99037.31;1759914;81;25609;-46
2023/12/01 05:33:00;;;;;;;141.12;61.35;;;;;;;-4.13;89.92;99044.46;1726590;82;25573;-45
2023/12/01 05:35:28;;;;;;;134.93;61.42;;;;;;;-4.11;90.02;99046.86;1729237;83;28070;-45
2023/12/01 05:37:57;;;;;;;129.55;60.80;;;;;;;-4.10;89.96;99045.02;1731292;81;25688;-45
2023/12/01 05:40:36;;;;;;;153.55;61.00;;;;;;;-4.09;90.02;99050.59;1763353;81;25641;-45
2023/12/01 05:43:06;;;;;;;138.80;61.48;;;;;;;-4.09;90.05;99049.27;1763333;81;25631;-45
2023/12/01 05:45:35;;;;;;;137.75;59.55;;;;;;;-4.09;90.03;99051.38;1763215;81;25543;-45
2023/12/01 05:48:06;;;;;;;130.10;58.15;;;;;;;-4.08;90.18;99049.55;1728217;81;27432;-45
2023/12/01 05:50:33;;;;;;;137.40;58.42;;;;;;;-4.04;90.14;99058.58;1762837;81;25562;-45
2023/12/01 05:53:03;;;;;;;132.93;55.83;;;;;;;-4.04;90.02;99058.05;1763168;81;25447;-45
2023/12/01 05:55:35;;;;;;;131.20;54.88;;;;;;;-4.03;90.01;99067.59;1763193;81;25620;-45
2023/12/01 05:58:11;;;;;;;122.33;53.10;;;;;;;-4.02;89.90;99074.48;1763245;81;25428;-44
2023/12/01 06:00:39;;;;;;;120.40;51.92;;;;;;;-4.02;90.05;99081.08;1763220;81;28051;-44
2023/12/01 06:03:09;;;;;;;117.90;51.30;;;;;;;-4.02;90.12;99092.97;1763108;81;25444;-44
2023/12/01 06:05:38;;;;;;;122.17;49.23;;;;;;;-4.01;90.21;99101.16;1763236;81;25384;-44
2023/12/01 06:08:08;;;;;;;123.13;48.90;;;;;;;-4.01;90.31;99106.97;1763427;81;25739;-44
2023/12/01 06:10:34;;;;;;;;;;;;;;;-4.01;90.40;99117.00;1765909;80;25605;-44
2023/12/01 06:13:03;;;;;;;110.55;43.23;;;;;;;-4.04;90.32;99121.45;1763192;80;27320;-45
2023/12/01 06:15:30;;;;;;;105.12;44.15;;;;;;;-4.04;90.47;99120.12;1763347;81;25669;-45
2023/12/01 06:17:59;;;;;;;101.47;46.55;;;;;;;-4.04;90.61;99125.41;1763369;81;25609;-44
2023/12/01 06:20:26;;;;;;;114.15;50.43;;;;;;;-4.02;90.78;99128.63;1763319;81;25842;-44
2023/12/01 06:23:05;;;;;;;104.40;45.43;;;;;;;-4.01;90.90;99127.57;1763401;81;25391;-45
2023/12/01 06:25:33;;;;;;;119.42;47.25;;;;;;;-3.98;90.94;99126.30;1763098;81;27951;-44
2023/12/01 06:28:05;;;;;;;108.57;47.15;;;;;;;-3.97;91.03;99131.35;1763369;81;25376;-45
2023/12/01 06:30:34;;;;;;;115.90;49.13;;;;;;;-3.95;91.09;99141.64;1763426;81;25395;-45
2023/12/01 06:33:03;;;;;;;121.02;46.85;;;;;;;-3.92;91.22;99149.09;1763111;81;25594;-44
2023/12/01 06:35:30;;;;;;;117.25;48.58;;;;;;;-3.91;91.27;99146.75;1725025;83;25638;-46
2023/12/01 06:37:57;;;;;;;126.82;51.77;;;;;;;-3.89;91.31;99156.55;1724758;83;27347;-45
2023/12/01 06:40:24;;;;;;;119.85;49.42;;;;;;;-3.86;91.37;99153.95;1755817;81;25624;-44
2023/12/01 06:42:54;;;;;;;121.55;53.38;;;;;;;-3.86;91.50;99156.07;1716523;83;25576;-46
2023/12/01 06:45:26;;;;;;;120.87;51.85;;;;;;;-3.80;91.66;99150.33;1747812;82;25601;-45
2023/12/01 06:47:53;;;;;;;128.38;51.53;;;;;;;-3.76;91.82;99154.89;1758555;81;25392;-45
2023/12/01 06:50:24;;;;;;;119.30;51.88;;;;;;;-3.72;91.81;99145.95;1758598;80;27290;-45
2023/12/01 06:52:53;;;;;;;125.40;52.40;;;;;;;-3.68;91.84;99135.70;1758535;81;25439;-45
2023/12/01 06:55:20;;;;;;;129.35;54.73;;;;;;;-3.63;91.94;99129.95;1758444;81;35223;-45
2023/12/01 06:57:48;;;;;;;127.90;54.63;;;;;;;-3.61;91.78;99127.06;1724673;83;25651;-45
2023/12/01 07:02:59;;;;;;;147.05;62.30;;;;;;;-3.55;91.64;99139.32;1730199;83;27693;-43
2023/12/01 07:05:31;;;;;;;146.55;62.98;;;;;;;-3.53;91.57;99149.13;1755825;81;26000;-44
2023/12/01 07:07:59;;;;;;;148.85;59.98;;;;;;;-3.54;91.48;99141.44;1716562;83;25567;-45
2023/12/01 07:22:03;;;;;;;132.72;55.70;;;;;;;-3.52;90.53;99131.41;1756402;78;27358;31
2023/12/01 07:24:30;;;;;;;130.72;52.67;;;;;;;-3.52;90.44;99130.08;1737446;82;26288;-44
2023/12/01 07:26:56;;;;;;;128.68;53.20;;;;;;;-3.58;90.13;99122.09;1739091;82;25455;-43
2023/12/01 07:29:23;;;;;;;134.27;55.60;;;;;;;-3.56;90.02;99132.42;1739027;82;27972;-44
2023/12/01 07:31:51;;;;;;;123.20;52.62;;;;;;;-3.59;89.79;99130.29;1739059;82;25609;-44
2023/12/01 07:34:18;;;;;;;121.97;53.28;;;;;;;-3.63;89.63;99132.59;1739016;82;25615;-45
2023/12/01 07:36:44;;;;;;;122.02;52.40;;;;;;;-3.69;89.40;99123.55;1738998;82;26132;-45
2023/12/01 07:39:11;;;;;;;120.20;52.48;;;;;;;-3.69;89.52;99130.94;1739051;82;25577;-44
2023/12/01 07:41:38;;;;;;;120.70;49.90;;;;;;;-3.73;89.55;99126.38;1738980;82;27910;-46
2023/12/01 07:44:04;;;;;;;114.05;49.27;;;;;;;-3.71;89.49;99141.47;1739006;82;25620;-44
2023/12/01 07:46:32;;;;;;;113.77;48.08;;;;;;;-3.74;89.21;99140.13;1739082;82;25445;-45
2023/12/01 07:49:01;;;;;;;118.75;49.05;;;;;;;-3.80;88.92;99148.51;1739062;82;25970;-45
2023/12/01 07:51:27;;;;;;;127.45;50.55;;;;;;;-3.82;89.17;99150.56;1738990;82;25608;-46
2023/12/01 07:53:54;;;;;;;116.75;48.55;;;;;;;-3.86;89.07;99145.50;1738939;82;26714;-47
2023/12/01 07:56:23;;;;;;;123.47;49.13;;;;;;;-3.90;88.79;99144.89;1738943;82;26000;-45
2023/12/01 07:58:50;;;;;;;125.20;51.23;;;;;;;-3.92;88.83;99165.48;1738986;82;25188;-45
2023/12/01 08:01:18;;;;;;;115.15;48.15;;;;;;;-3.96;88.91;99166.48;1738972;82;25614;-44
2023/12/01 08:03:46;;;;;;;115.85;48.68;;;;;;;-3.97;89.12;99164.38;1738970;82;25444;-44
2023/12/01 08:06:13;;;;;;;116.47;47.00;;;;;;;-3.97;89.22;99167.02;1739018;82;27984;-44
2023/12/01 08:08:42;;;;;;;118.25;48.10;;;;;;;-3.98;89.03;99173.86;1738913;82;25643;-43
2023/12/01 08:11:09;;;;;;;89.83;35.60;;;;;;;-3.99;88.98;99180.17;1718865;82;25391;-45
2023/12/01 08:13:36;;;;;;;115.40;46.73;;;;;;;-4.02;89.08;99173.54;1738929;82;25600;-44
2023/12/01 08:16:05;;;;;;;117.53;47.65;;;;;;;-4.02;89.28;99171.39;1718813;82;25597;-45
2023/12/01 08:18:32;;;;;;;123.90;47.67;;;;;;;-4.03;89.12;99174.56;1739127;82;27321;-44
2023/12/01 08:20:59;;;;;;;114.12;47.85;;;;;;;-4.06;89.03;99174.25;1738911;82;25669;-46
2023/12/01 08:23:26;;;;;;;127.67;49.30;;;;;;;-4.08;89.00;99178.98;1735087;81;25448;-46
2023/12/01 08:25:53;;;;;;;154.20;57.93;;;;;;;-4.08;89.03;99186.37;1729874;82;26258;-45
2023/12/01 08:28:20;;;;;;;181.18;68.83;;;;;;;-4.11;88.98;99186.05;1729836;83;25546;-46
2023/12/01 08:30:47;;;;;;;151.42;59.77;;;;;;;-4.11;89.11;99192.66;1729838;83;27299;-45
2023/12/01 08:33:14;;;;;;;133.35;55.05;;;;;;;-4.11;89.39;99190.81;1729663;83;25438;-43
2023/12/01 08:35:41;;;;;;;127.87;50.70;;;;;;;-4.07;89.48;99195.09;1729818;83;25492;-45
2023/12/01 08:38:10;;;;;;;127.20;48.73;;;;;;;-4.07;89.48;99200.37;1729776;83;26317;-45
2023/12/01 08:40:38;;;;;;;125.87;50.23;;;;;;;-4.05;89.43;99198.28;1729939;83;25554;-43
2023/12/01 08:43:05;;;;;;;160.45;54.30;;;;;;;-4.04;89.42;99195.94;1729793;83;28076;-44
2023/12/01 08:45:33;;;;;;;175.12;62.75;;;;;;;-4.03;89.32;99204.95;1729763;83;25609;-44
2023/12/01 08:48:00;;;;;;;139.28;52.75;;;;;;;-4.08;89.06;99200.11;1729835;83;25628;-43
2023/12/01 08:50:27;;;;;;;132.43;54.13;;;;;;;-4.08;89.13;99202.22;1729911;83;25929;-44
2023/12/01 08:52:53;;;;;;;140.37;52.43;;;;;;;-4.07;89.17;99203.84;1729806;83;25596;-47
2023/12/01 08:55:20;;;;;;;133.40;51.75;;;;;;;-4.09;89.10;99201.93;1729788;83;27696;-45
2023/12/01 08:57:46;;;;;;;151.40;58.83;;;;;;;-4.09;89.18;99201.93;1729713;83;25582;-45
2023/12/01 09:00:20;;;;;;;137.15;52.58;;;;;;;-4.08;89.21;99206.19;1729799;83;25414;-48
2023/12/01 09:02:44;;;;;;;147.47;54.65;;;;;;;-4.07;89.14;99208.30;1729352;82;25637;-46
2023/12/01 09:05:11;;;;;;;127.27;49.40;;;;;;;-4.06;89.12;99217.84;1729812;83;25568;-46
2023/12/01 09:07:38;;;;;;;132.80;50.73;;;;;;;-4.07;88.71;99215.72;1729852;83;27322;-44
2023/12/01 09:10:07;;;;;;;119.57;49.08;;;;;;;-4.09;88.75;99206.42;1729721;83;25431;-45
2023/12/01 09:12:35;;;;;;;117.17;47.98;;;;;;;-4.12;88.68;99205.05;1729952;83;25554;-45
2023/12/01 09:15:01;;;;;;;120.80;49.65;;;;;;;-4.16;88.46;99210.00;1729765;83;25680;-45
2023/12/01 09:17:28;;;;;;;114.30;46.68;;;;;;;-4.21;88.32;99212.56;1729945;83;25600;-45
2023/12/01 09:19:55;;;;;;;111.57;45.12;;;;;;;-4.21;88.57;99211.77;1729826;83;27345;-45
2023/12/01 09:22:21;;;;;;;115.40;45.23;;;;;;;-4.22;88.73;99213.61;1729742;83;25997;-45
2023/12/01 09:24:48;;;;;;;116.40;46.77;;;;;;;-4.19;88.99;99221.56;1742671;81;25523;-44
2023/12/01 09:27:15;;;;;;;125.87;47.35;;;;;;;-4.17;89.07;99222.95;1753748;81;26583;-44
2023/12/01 09:29:42;;;;;;;128.18;51.60;;;;;;;-4.16;89.02;99229.81;1753933;81;25508;-45
2023/12/01 09:32:08;;;;;;;135.90;54.88;;;;;;;-4.17;89.08;99224.77;1753802;81;27313;-45
2023/12/01 09:34:35;;;;;;;129.27;51.55;;;;;;;-4.12;89.08;99223.53;1753700;81;25660;-44
2023/12/01 09:37:02;;;;;;;130.35;51.10;;;;;;;-4.11;89.16;99220.39;1753783;81;25572;-46
2023/12/01 09:39:29;;;;;;;128.38;51.85;;;;;;;-4.11;89.00;99225.67;1753776;81;25628;-45
2023/12/01 09:41:58;;;;;;;123.13;48.63;;;;;;;-4.15;88.70;99220.07;1753842;81;25398;-44
2023/12/01 09:44:26;;;;;;;110.48;43.10;;;;;;;-4.15;88.85;99208.98;1754117;81;28523;-44
2023/12/01 09:46:54;;;;;;;104.12;43.13;;;;;;;-4.14;88.67;99205.80;1753763;81;25447;-44
2023/12/01 09:49:24;;;;;;;102.82;40.60;;;;;;;-4.21;88.20;99207.80;1753980;80;25367;-46
2023/12/01 09:51:50;;;;;;;107.52;41.00;;;;;;;-4.25;88.28;99212.77;1753894;81;25608;-44
2023/12/01 09:54:18;;;;;;;97.97;39.75;;;;;;;-4.25;88.34;99214.61;1753825;81;25521;-45
2023/12/01 09:56:45;;;;;;;110.12;42.43;;;;;;;-4.24;88.76;99205.64;1753801;81;27194;-45
2023/12/01 09:59:16;;;;;;;104.55;41.77;;;;;;;-4.19;89.06;99207.86;1753722;81;25590;-44
2023/12/01 10:01:44;;;;;;;104.20;43.48;;;;;;;-4.16;89.43;99217.93;1753834;81;25546;-44
2023/12/01 10:04:11;;;;;;;103.35;42.17;;;;;;;-4.11;89.16;99227.78;1753802;80;25980;-45
2023/12/01 10:06:40;;;;;;;94.70;41.23;;;;;;;-4.08;89.30;99229.16;1753801;81;25610;-45
2023/12/01 10:09:09;;;;;;;98.62;41.02;;;;;;;-4.04;89.25;99226.31;1753779;81;27304;-45
2023/12/01 10:11:35;;;;;;;93.87;39.60;;;;;;;-4.04;89.16;99223.67;1753637;81;25700;-45
2023/12/01 10:14:06;;;;;;;96.57;42.17;;;;;;;-4.01;89.43;99226.64;1753741;81;25544;-45
2023/12/01 10:16:38;;;;;;;98.67;40.92;;;;;;;-4.02;88.96;99229.52;1753769;81;26203;-49
2023/12/01 10:19:06;;;;;;;93.45;37.85;;;;;;;-4.03;89.03;99229.25;1753805;81;25556;-56
2023/12/01 10:21:49;;;;;;;93.25;39.88;;;;;;;-4.03;88.94;99222.64;1753784;81;26964;-56
2023/12/01 10:24:21;;;;;;;94.97;39.63;;;;;;;-4.02;89.11;99222.41;1742430;80;25707;-57
2023/12/01 10:26:51;;;;;;;83.90;38.00;;;;;;;-3.95;89.66;99235.44;1732361;82;25531;-56
2023/12/01 10:29:32;;;;;;;95.77;39.73;;;;;;;-3.92;89.41;99236.81;1732275;82;26049;-57
2023/12/01 10:32:11;;;;;;;83.70;35.10;;;;;;;-3.90;89.57;99232.09;1732397;82;25565;-55
2023/12/01 10:34:38;;;;;;;92.02;37.45;;;;;;;-3.81;89.78;99226.17;1732124;82;27899;-57
2023/12/01 10:37:05;;;;;;;93.42;39.92;;;;;;;-3.72;89.78;99222.60;1732412;82;25697;-56
2023/12/01 10:39:33;;;;;;;85.80;36.98;;;;;;;-3.61;90.01;99228.83;1732397;82;25455;-58
2023/12/01 10:42:00;;;;;;;95.05;41.37;;;;;;;-3.54;89.66;99237.92;1732326;82;25847;-50
2023/12/01 10:44:28;;;;;;;114.15;53.90;;;;;;;-3.50;89.50;99235.09;1732440;82;25522;-52
2023/12/01 10:46:56;;;;;;;118.17;57.40;;;;;;;-3.48;88.90;99227.19;1732351;82;27528;-51
2023/12/01 10:49:23;;;;;;;82.33;37.38;;;;;;;-3.47;88.36;99224.04;1732354;82;25458;-56
2023/12/01 10:51:55;;;;;;;85.80;37.88;;;;;;;-3.47;88.06;99224.04;1732389;82;25459;-59
2023/12/01 10:54:25;;;;;;;76.15;34.23;;;;;;;-3.48;87.68;99235.65;1732422;82;26873;-55
2023/12/01 10:57:17;;;;;;;88.75;35.35;;;;;;;-3.53;87.03;99232.40;1732581;82;25388;-56
2023/12/01 10:59:48;;;;;;;75.60;34.15;;;;;;;-3.57;86.91;99236.58;1731711;82;27654;-59
2023/12/01 11:02:16;;;;;;;80.62;34.55;;;;;;;-3.61;87.14;99236.27;1731889;82;25737;-60
2023/12/01 11:04:48;;;;;;;84.13;35.48;;;;;;;-3.63;87.00;99232.25;1732486;82;25393;-60
2023/12/01 11:07:43;;;;;;;79.17;33.40;;;;;;;-3.64;87.06;99226.70;1732507;82;26691;-60
2023/12/01 11:10:51;;;;;;;84.13;33.38;;;;;;;-3.67;87.16;99227.97;1732546;82;25521;-62
2023/12/01 11:13:59;;;;;;;74.22;33.90;;;;;;;-3.64;87.45;99235.42;1732640;82;27322;-58
2023/12/01 11:16:28;;;;;;;77.78;31.97;;;;;;;-3.61;87.53;99230.16;1732426;82;25438;-60
2023/12/01 11:18:56;;;;;;;86.95;35.95;;;;;;;-3.59;87.65;99230.20;1732593;82;25577;-60
2023/12/01 11:21:23;;;;;;;81.42;35.10;;;;;;;-3.58;87.33;99233.11;1732721;82;25626;-60
2023/12/01 11:23:51;;;;;;;85.35;36.00;;;;;;;-3.58;87.31;99238.94;1732447;81;25630;-60
2023/12/01 11:26:18;;;;;;;89.22;37.58;;;;;;;-3.57;87.35;99241.34;1732508;82;27361;-61
2023/12/01 11:28:55;;;;;;;95.32;39.63;;;;;;;-3.53;87.41;99237.69;1732452;82;25646;-62
2023/12/01 11:31:34;;;;;;;92.67;37.38;;;;;;;-3.52;87.25;99231.37;1731566;82;25245;-62
2023/12/01 11:33:55;;;;;;;88.60;38.95;;;;;;;-3.51;87.16;99232.16;1730817;82;25952;-60